createdAt,value
2023-03-03T00:01:07.254Z,26.14
2023-03-03T00:03:35.647Z,26.14
2023-03-03T00:06:04.824Z,25.94
2023-03-03T00:08:33.045Z,26.14
2023-03-03T00:11:03.297Z,26.11
2023-03-03T00:13:32.454Z,26.11
2023-03-03T00:16:15.174Z,26.13
2023-03-03T00:18:46.030Z,26.11
2023-03-03T00:21:25.811Z,26.12
2023-03-03T00:23:55.187Z,26.11
2023-03-03T00:26:27.522Z,26.11
2023-03-03T00:28:57.052Z,26.11
2023-03-03T00:31:31.849Z,26.12
2023-03-03T00:34:12.996Z,26.12
2023-03-03T00:36:43.143Z,26.11
2023-03-03T00:39:22.152Z,26.12
2023-03-03T00:41:50.677Z,26.08
2023-03-03T00:44:49.214Z,26.09
2023-03-03T00:47:39.146Z,26.06
2023-03-03T00:50:27.981Z,26.06
2023-03-03T00:53:02.702Z,26.05
2023-03-03T00:55:31.711Z,26.03
2023-03-03T00:57:59.830Z,26.02
2023-03-03T01:00:34.303Z,26.01
2023-03-03T01:03:06.778Z,25.96
2023-03-03T01:05:35.358Z,25.99
2023-03-03T01:08:04.189Z,25.90
2023-03-03T01:10:35.492Z,25.97
2023-03-03T01:13:04.163Z,25.96
2023-03-03T01:15:32.086Z,25.92
2023-03-03T01:18:00.178Z,25.96
2023-03-03T01:20:29.441Z,25.95
2023-03-03T01:22:57.504Z,25.95
2023-03-03T01:25:25.597Z,25.95
2023-03-03T01:27:53.478Z,25.95
2023-03-03T01:30:21.677Z,25.95
2023-03-03T01:32:49.705Z,25.95
2023-03-03T01:35:18.536Z,25.95
2023-03-03T01:37:47.883Z,25.94
2023-03-03T01:40:17.828Z,25.94
2023-03-03T01:42:45.827Z,25.93
2023-03-03T01:45:20.456Z,25.93
2023-03-03T01:47:53.851Z,25.93
2023-03-03T01:50:32.473Z,25.92
2023-03-03T01:53:05.518Z,25.80
2023-03-03T01:55:37.872Z,25.92
2023-03-03T01:58:09.687Z,25.89
2023-03-03T02:00:40.378Z,25.88
2023-03-03T02:03:08.657Z,25.87
2023-03-03T02:05:37.237Z,25.85
2023-03-03T02:08:09.978Z,25.86
2023-03-03T02:10:38.680Z,25.84
2023-03-03T02:13:06.807Z,25.82
2023-03-03T02:15:37.021Z,25.83
2023-03-03T02:18:07.564Z,25.83
2023-03-03T02:20:51.319Z,25.83
2023-03-03T02:23:25.396Z,25.75
2023-03-03T02:26:10.889Z,25.82
2023-03-03T02:28:41.538Z,25.82
2023-03-03T02:31:14.365Z,25.82
2023-03-03T02:33:45.602Z,25.82
2023-03-03T02:36:16.824Z,25.82
2023-03-03T02:38:50.767Z,25.82
2023-03-03T02:41:30.191Z,25.82
2023-03-03T02:44:02.277Z,25.82
2023-03-03T02:46:35.407Z,25.81
2023-03-03T02:49:04.473Z,25.81
2023-03-03T02:51:32.493Z,25.81
2023-03-03T02:54:00.443Z,25.81
2023-03-03T02:56:32.167Z,25.80
2023-03-03T02:59:00.579Z,25.79
2023-03-03T03:01:31.800Z,25.78
2023-03-03T03:04:00.267Z,25.78
2023-03-03T03:06:28.900Z,25.77
2023-03-03T03:08:57.684Z,25.77
2023-03-03T03:11:25.591Z,25.75
2023-03-03T03:13:55.066Z,25.75
2023-03-03T03:16:24.327Z,25.72
2023-03-03T03:18:52.259Z,25.72
2023-03-03T03:21:20.367Z,25.72
2023-03-03T03:23:48.727Z,25.71
2023-03-03T03:26:16.813Z,25.72
2023-03-03T03:28:45.476Z,25.72
2023-03-03T03:31:15.682Z,25.72
2023-03-03T03:33:43.980Z,25.73
2023-03-03T03:36:13.608Z,25.71
2023-03-03T03:38:42.809Z,25.72
2023-03-03T03:41:12.950Z,25.73
2023-03-03T03:43:41.405Z,25.74
2023-03-03T03:46:09.748Z,25.70
2023-03-03T03:48:39.119Z,25.73
2023-03-03T03:51:08.980Z,25.73
2023-03-03T03:53:37.015Z,25.72
2023-03-03T03:56:05.331Z,25.51
2023-03-03T03:58:33.602Z,25.70
2023-03-03T04:01:06.574Z,25.71
2023-03-03T04:03:38.944Z,25.70
2023-03-03T04:06:11.331Z,25.69
2023-03-03T04:08:39.560Z,25.68
2023-03-03T04:11:09.053Z,25.66
2023-03-03T04:13:37.990Z,25.66
2023-03-03T04:16:08.261Z,25.65
2023-03-03T04:18:37.129Z,25.63
2023-03-03T04:21:07.038Z,25.61
2023-03-03T04:23:35.317Z,25.64
2023-03-03T04:26:03.974Z,25.64
2023-03-03T04:28:32.062Z,25.66
2023-03-03T04:31:01.031Z,25.45
2023-03-03T04:33:31.306Z,25.65
2023-03-03T04:36:00.307Z,25.66
2023-03-03T04:38:29.739Z,25.66
2023-03-03T04:40:58.355Z,25.67
2023-03-03T04:43:29.008Z,25.67
2023-03-03T04:45:58.084Z,25.68
2023-03-03T04:48:26.255Z,25.68
2023-03-03T04:50:54.871Z,25.61
2023-03-03T04:53:23.007Z,25.69
2023-03-03T04:55:54.078Z,25.68
2023-03-03T04:58:23.239Z,25.68
2023-03-03T05:00:55.965Z,25.68
2023-03-03T05:03:26.911Z,25.66
2023-03-03T05:05:55.176Z,25.65
2023-03-03T05:08:23.493Z,25.66
2023-03-03T05:10:55.601Z,25.66
2023-03-03T05:13:23.905Z,25.63
2023-03-03T05:15:52.378Z,25.63
2023-03-03T05:18:20.987Z,25.63
2023-03-03T05:20:48.963Z,25.60
2023-03-03T05:23:17.397Z,25.62
2023-03-03T05:25:45.731Z,25.61
2023-03-03T05:28:15.239Z,25.56
2023-03-03T05:30:43.334Z,25.62
2023-03-03T05:33:15.180Z,25.64
2023-03-03T05:35:43.486Z,25.64
2023-03-03T05:38:11.963Z,25.65
2023-03-03T05:40:40.294Z,25.66
2023-03-03T05:43:08.287Z,25.66
2023-03-03T05:45:37.663Z,25.66
2023-03-03T05:48:05.857Z,25.66
2023-03-03T05:50:34.531Z,25.67
2023-03-03T05:53:02.795Z,25.67
2023-03-03T05:55:30.800Z,25.68
2023-03-03T05:57:58.880Z,25.68
2023-03-03T06:00:27.222Z,25.64
2023-03-03T06:02:56.642Z,25.64
2023-03-03T06:05:24.647Z,25.65
2023-03-03T06:07:52.673Z,25.65
2023-03-03T06:10:21.038Z,25.65
2023-03-03T06:12:55.153Z,25.65
2023-03-03T06:15:23.342Z,25.64
2023-03-03T06:17:51.382Z,25.62
2023-03-03T06:20:20.901Z,25.59
2023-03-03T06:22:48.937Z,25.61
2023-03-03T06:25:17.212Z,25.60
2023-03-03T06:27:45.514Z,25.57
2023-03-03T06:30:14.267Z,25.59
2023-03-03T06:32:42.402Z,25.58
2023-03-03T06:35:10.592Z,25.59
2023-03-03T06:37:39.955Z,25.59
2023-03-03T06:40:09.282Z,25.60
2023-03-03T06:42:37.351Z,25.60
2023-03-03T06:45:06.120Z,25.61
2023-03-03T06:47:34.030Z,25.63
2023-03-03T06:50:02.164Z,25.64
2023-03-03T06:52:30.136Z,25.65
2023-03-03T06:55:02.614Z,25.68
2023-03-03T06:57:33.807Z,25.67
2023-03-03T07:00:15.503Z,25.69
2023-03-03T07:02:43.862Z,25.69
2023-03-03T07:05:15.978Z,25.71
2023-03-03T07:07:44.046Z,25.71
2023-03-03T07:10:24.894Z,25.74
2023-03-03T07:12:53.193Z,25.76
2023-03-03T07:15:24.397Z,25.80
2023-03-03T07:17:58.281Z,25.81
2023-03-03T07:20:33.574Z,25.83
2023-03-03T07:23:01.703Z,25.84
2023-03-03T07:25:35.425Z,25.86
2023-03-03T07:28:21.681Z,25.88
2023-03-03T07:30:49.779Z,25.89
2023-03-03T07:33:26.797Z,25.92
2023-03-03T07:35:56.368Z,25.95
2023-03-03T07:38:35.706Z,25.98
2023-03-03T07:41:12.126Z,25.98
2023-03-03T07:43:44.347Z,26.00
2023-03-03T07:46:32.041Z,26.03
2023-03-03T07:49:01.492Z,26.05
2023-03-03T07:51:31.885Z,26.08
2023-03-03T07:54:15.872Z,26.09
2023-03-03T07:56:45.892Z,26.11
2023-03-03T07:59:22.200Z,26.16
2023-03-03T08:01:53.372Z,26.20
2023-03-03T08:04:25.576Z,25.89
2023-03-03T08:06:55.957Z,26.26
2023-03-03T08:09:44.114Z,26.27
2023-03-03T08:12:39.375Z,26.27
2023-03-03T08:15:19.776Z,26.28
2023-03-03T08:17:48.550Z,26.29
2023-03-03T08:20:48.172Z,26.33
2023-03-03T08:23:18.228Z,26.32
2023-03-03T08:25:46.996Z,26.33
2023-03-03T08:28:16.786Z,26.35
2023-03-03T08:30:47.166Z,26.34
2023-03-03T08:33:15.818Z,26.36
2023-03-03T08:35:44.311Z,26.35
2023-03-03T08:38:15.875Z,26.36
2023-03-03T08:40:44.444Z,26.35
2023-03-03T08:43:16.994Z,26.35
2023-03-03T08:45:47.732Z,26.35
2023-03-03T08:48:16.314Z,26.36
2023-03-03T08:50:45.547Z,26.38
2023-03-03T08:53:14.727Z,26.37
2023-03-03T08:55:43.258Z,26.42
2023-03-03T08:58:11.228Z,26.45
2023-03-03T09:00:39.466Z,26.48
2023-03-03T09:03:09.019Z,26.52
2023-03-03T09:05:39.020Z,26.56
2023-03-03T09:08:09.715Z,26.59
2023-03-03T09:10:38.237Z,26.62
2023-03-03T09:13:12.430Z,26.65
2023-03-03T09:15:40.780Z,26.67
2023-03-03T09:18:17.541Z,26.52
2023-03-03T09:20:46.969Z,26.71
2023-03-03T09:23:34.864Z,26.75
2023-03-03T09:26:31.336Z,26.73
2023-03-03T09:29:10.918Z,26.75
2023-03-03T09:31:43.506Z,26.77
2023-03-03T09:34:22.417Z,26.77
2023-03-03T09:36:51.779Z,26.76
2023-03-03T09:39:21.619Z,26.78
2023-03-03T09:42:42.884Z,26.81
2023-03-03T09:45:41.874Z,26.81
2023-03-03T09:48:34.069Z,26.80
2023-03-03T09:51:27.195Z,26.80
2023-03-03T09:54:06.330Z,26.81
2023-03-03T09:56:38.778Z,26.82
2023-03-03T09:59:24.068Z,26.84
2023-03-03T10:02:06.586Z,26.87
2023-03-03T10:04:50.755Z,26.88
2023-03-03T10:07:40.346Z,26.87
2023-03-03T10:10:22.533Z,26.88
2023-03-03T10:13:03.477Z,26.89
2023-03-03T10:15:44.218Z,26.90
2023-03-03T10:18:24.382Z,26.89
2023-03-03T10:21:05.772Z,26.77
2023-03-03T10:23:57.634Z,26.88
2023-03-03T10:26:54.652Z,26.85
2023-03-03T10:29:37.075Z,26.83
2023-03-03T10:32:27.380Z,26.83
2023-03-03T10:35:15.585Z,26.81
2023-03-03T10:37:54.140Z,26.78
2023-03-03T10:40:30.165Z,26.76
2023-03-03T10:43:29.906Z,26.77
2023-03-03T10:46:21.779Z,26.75
2023-03-03T10:49:03.223Z,26.74
2023-03-03T10:51:40.799Z,26.74
2023-03-03T10:54:31.235Z,26.72
2023-03-03T10:57:08.511Z,26.71
2023-03-03T10:59:52.690Z,26.71
2023-03-03T11:02:26.573Z,26.69
2023-03-03T11:05:23.902Z,26.69
2023-03-03T11:07:56.718Z,26.68
2023-03-03T11:10:51.195Z,26.67
2023-03-03T11:13:27.343Z,26.65
2023-03-03T11:16:06.492Z,26.64
2023-03-03T11:18:52.714Z,26.60
2023-03-03T11:21:26.008Z,26.60
2023-03-03T11:24:03.322Z,26.58
2023-03-03T11:26:46.498Z,26.52
2023-03-03T11:29:29.413Z,26.58
2023-03-03T11:32:01.762Z,26.57
2023-03-03T11:34:47.203Z,26.59
2023-03-03T11:37:23.031Z,26.57
2023-03-03T11:39:54.634Z,26.55
2023-03-03T11:42:27.744Z,26.54
2023-03-03T11:45:01.154Z,26.53
2023-03-03T11:47:34.873Z,26.54
2023-03-03T11:50:05.530Z,26.47
2023-03-03T11:52:44.667Z,26.54
2023-03-03T11:55:16.435Z,26.35
2023-03-03T11:57:51.847Z,26.53
2023-03-03T12:00:32.098Z,26.49
2023-03-03T12:03:15.570Z,26.57
2023-03-03T12:05:51.264Z,26.47
2023-03-03T12:08:31.678Z,26.64
2023-03-03T12:11:08.988Z,26.65
2023-03-03T12:13:50.702Z,26.67
2023-03-03T12:16:29.597Z,26.64
2023-03-03T12:19:11.467Z,26.63
2023-03-03T12:21:55.471Z,26.63
2023-03-03T12:24:34.152Z,26.40
2023-03-03T12:27:12.595Z,26.63
2023-03-03T12:29:51.476Z,26.63
2023-03-03T12:32:35.211Z,26.66
2023-03-03T12:35:10.949Z,26.69
2023-03-03T12:37:50.831Z,26.72
2023-03-03T12:40:21.889Z,26.74
2023-03-03T12:43:05.836Z,26.77
2023-03-03T12:45:45.192Z,26.77
2023-03-03T12:48:18.522Z,26.77
2023-03-03T12:51:00.468Z,26.78
2023-03-03T12:53:54.804Z,26.80
2023-03-03T12:56:31.659Z,26.74
2023-03-03T12:59:05.837Z,26.81
2023-03-03T13:01:53.696Z,26.82
2023-03-03T13:04:34.312Z,26.82
2023-03-03T13:07:09.562Z,26.82
2023-03-03T13:09:53.339Z,26.85
2023-03-03T13:12:33.747Z,26.88
2023-03-03T13:15:09.682Z,26.91
2023-03-03T13:17:43.923Z,26.92
2023-03-03T13:20:26.248Z,26.94
2023-03-03T13:23:00.854Z,26.95
2023-03-03T13:25:42.142Z,26.97
2023-03-03T13:28:19.507Z,26.98
2023-03-03T13:30:51.136Z,26.97
2023-03-03T13:33:26.775Z,26.98
2023-03-03T13:36:01.096Z,26.98
2023-03-03T13:38:32.279Z,26.96
2023-03-03T13:41:08.034Z,26.95
2023-03-03T13:43:44.800Z,26.94
2023-03-03T13:46:19.563Z,26.93
2023-03-03T13:49:21.256Z,26.91
2023-03-03T13:51:57.592Z,26.91
2023-03-03T13:54:55.974Z,26.88
2023-03-03T13:57:55.509Z,26.88
2023-03-03T14:00:36.816Z,26.87
2023-03-03T14:03:19.015Z,26.88
2023-03-03T14:05:50.899Z,26.88
2023-03-03T14:08:36.645Z,26.90
2023-03-03T14:11:12.322Z,26.91
2023-03-03T14:13:50.709Z,26.93
2023-03-03T14:16:23.905Z,26.93
2023-03-03T14:18:58.140Z,26.95
2023-03-03T14:21:32.450Z,26.95
2023-03-03T14:24:08.605Z,26.95
2023-03-03T14:26:49.548Z,26.95
2023-03-03T14:29:32.613Z,26.96
2023-03-03T14:32:02.695Z,26.94
2023-03-03T14:34:39.394Z,26.96
2023-03-03T14:37:23.861Z,26.95
2023-03-03T14:40:21.281Z,26.94
2023-03-03T14:42:55.640Z,26.94
2023-03-03T14:45:32.397Z,26.96
2023-03-03T14:48:06.915Z,26.92
2023-03-03T14:50:37.809Z,26.94
2023-03-03T14:53:21.472Z,26.92
2023-03-03T14:55:52.903Z,26.91
2023-03-03T14:58:30.805Z,26.95
2023-03-03T15:01:10.299Z,26.94
2023-03-03T15:03:40.941Z,26.92
2023-03-03T15:06:13.941Z,26.93
2023-03-03T15:08:43.537Z,26.81
2023-03-03T15:11:22.019Z,26.92
2023-03-03T15:13:49.986Z,26.91
2023-03-03T15:16:19.868Z,26.89
2023-03-03T15:19:20.243Z,26.89
2023-03-03T15:22:00.818Z,26.89
2023-03-03T15:24:39.032Z,26.88
2023-03-03T15:27:14.510Z,26.88
2023-03-03T15:29:53.194Z,26.90
2023-03-03T15:32:31.059Z,26.91
2023-03-03T15:35:11.378Z,26.88
2023-03-03T15:37:47.929Z,26.87
2023-03-03T15:40:26.940Z,26.86
2023-03-03T15:43:05.679Z,26.84
2023-03-03T15:45:37.984Z,26.82
2023-03-03T15:48:17.832Z,26.80
2023-03-03T15:50:53.583Z,26.78
2023-03-03T15:53:43.852Z,26.79
2023-03-03T15:56:25.829Z,26.77
2023-03-03T15:59:31.469Z,26.73
2023-03-03T16:02:11.838Z,26.73
2023-03-03T16:04:45.967Z,26.69
2023-03-03T16:07:26.976Z,26.69
2023-03-03T16:10:04.702Z,26.69
2023-03-03T16:12:41.327Z,26.68
2023-03-03T16:15:22.782Z,26.68
2023-03-03T16:18:00.322Z,26.64
2023-03-03T16:20:34.623Z,26.65
2023-03-03T16:23:30.143Z,26.64
2023-03-03T16:26:09.409Z,26.62
2023-03-03T16:28:51.583Z,26.61
2023-03-03T16:31:26.682Z,26.60
2023-03-03T16:34:04.555Z,26.59
2023-03-03T16:36:41.543Z,26.57
2023-03-03T16:39:16.274Z,26.56
2023-03-03T16:41:52.380Z,26.56
2023-03-03T16:44:34.210Z,26.56
2023-03-03T16:47:17.507Z,26.57
2023-03-03T16:49:53.812Z,26.58
2023-03-03T16:52:30.826Z,26.57
2023-03-03T16:55:04.212Z,26.57
2023-03-03T16:57:42.982Z,26.56
2023-03-03T17:00:18.973Z,26.56
2023-03-03T17:03:05.118Z,26.56
2023-03-03T17:05:44.246Z,26.56
2023-03-03T17:08:34.311Z,26.56
2023-03-03T17:11:13.362Z,26.55
2023-03-03T17:14:07.098Z,26.54
2023-03-03T17:16:52.674Z,26.54
2023-03-03T17:19:37.535Z,26.55
2023-03-03T17:22:15.679Z,26.53
2023-03-03T17:24:53.516Z,26.54
2023-03-03T17:27:29.143Z,26.52
2023-03-03T17:30:04.390Z,26.50
2023-03-03T17:33:07.477Z,26.49
2023-03-03T17:35:53.222Z,26.48
2023-03-03T17:38:34.796Z,26.48
2023-03-03T17:41:07.786Z,26.48
2023-03-03T17:43:45.394Z,26.48
2023-03-03T17:46:18.696Z,26.47
2023-03-03T17:49:09.358Z,26.43
2023-03-03T17:52:01.173Z,26.44
2023-03-03T17:55:04.549Z,26.44
2023-03-03T17:57:52.106Z,26.44
2023-03-03T18:00:32.693Z,26.42
2023-03-03T18:03:31.784Z,26.40
2023-03-03T18:06:19.404Z,26.38
2023-03-03T18:09:15.433Z,25.88
2023-03-03T18:12:00.159Z,26.33
2023-03-03T18:14:49.456Z,26.32
2023-03-03T18:17:34.729Z,26.31
2023-03-03T18:20:31.425Z,26.30
2023-03-03T18:23:19.596Z,26.30
2023-03-03T18:25:57.941Z,26.31
2023-03-03T18:28:44.792Z,26.29
2023-03-03T18:31:24.371Z,26.27
2023-03-03T18:34:09.812Z,26.25
2023-03-03T18:36:52.022Z,26.24
2023-03-03T18:39:37.699Z,26.25
2023-03-03T18:42:13.074Z,26.26
2023-03-03T18:44:41.132Z,26.26
2023-03-03T18:47:09.599Z,26.26
2023-03-03T18:49:58.009Z,26.25
2023-03-03T18:52:29.434Z,26.22
2023-03-03T18:55:23.285Z,26.24
2023-03-03T18:58:28.645Z,26.23
2023-03-03T19:01:00.917Z,26.21
2023-03-03T19:03:33.722Z,26.22
2023-03-03T19:06:02.726Z,26.20
2023-03-03T19:08:51.298Z,26.20
2023-03-03T19:11:37.770Z,26.20
2023-03-03T19:14:34.270Z,26.20
2023-03-03T19:17:34.859Z,26.19
2023-03-03T19:20:11.903Z,26.19
2023-03-03T19:22:46.363Z,26.18
2023-03-03T19:25:23.056Z,26.18
2023-03-03T19:28:01.147Z,26.16
2023-03-03T19:30:46.687Z,26.15
2023-03-03T19:33:38.366Z,25.93
2023-03-03T19:36:18.319Z,26.13
2023-03-03T19:39:08.126Z,26.13
2023-03-03T19:41:50.558Z,26.13
2023-03-03T19:44:30.582Z,26.12
2023-03-03T19:47:04.611Z,26.05
2023-03-03T19:49:55.068Z,26.11
2023-03-03T19:52:31.439Z,26.11
2023-03-03T19:55:14.748Z,26.10
2023-03-03T19:57:53.486Z,26.11
2023-03-03T20:00:28.253Z,26.08
2023-03-03T20:03:20.489Z,26.08
2023-03-03T20:05:53.300Z,26.07
2023-03-03T20:08:29.360Z,26.09
2023-03-03T20:11:03.559Z,26.09
2023-03-03T20:13:45.212Z,26.08
2023-03-03T20:16:24.360Z,26.06
2023-03-03T20:19:10.029Z,26.07
2023-03-03T20:21:42.688Z,26.07
2023-03-03T20:24:42.667Z,26.06
2023-03-03T20:27:16.424Z,26.06
2023-03-03T20:30:11.299Z,26.04
2023-03-03T20:32:53.867Z,26.04
2023-03-03T20:35:32.822Z,25.81
2023-03-03T20:38:13.382Z,26.01
2023-03-03T20:40:51.824Z,25.93
2023-03-03T20:43:36.171Z,25.96
2023-03-03T20:46:12.076Z,25.94
2023-03-03T20:49:09.904Z,25.93
2023-03-03T20:51:44.549Z,25.84
2023-03-03T20:54:24.490Z,25.91
2023-03-03T20:57:04.485Z,25.89
2023-03-03T20:59:38.482Z,25.88
2023-03-03T21:02:17.743Z,25.89
2023-03-03T21:04:45.846Z,25.88
2023-03-03T21:07:26.296Z,25.90
2023-03-03T21:10:12.509Z,25.88
2023-03-03T21:12:42.138Z,25.78
2023-03-03T21:15:25.118Z,25.86
2023-03-03T21:17:54.880Z,25.83
2023-03-03T21:20:29.913Z,25.83
2023-03-03T21:22:59.066Z,25.83
2023-03-03T21:25:48.256Z,25.81
2023-03-03T21:28:20.522Z,25.77
2023-03-03T21:31:09.089Z,25.61
2023-03-03T21:33:48.091Z,25.78
2023-03-03T21:36:17.977Z,25.75
2023-03-03T21:38:47.208Z,25.75
2023-03-03T21:41:16.519Z,25.73
2023-03-03T21:43:47.725Z,25.72
2023-03-03T21:46:19.348Z,25.71
2023-03-03T21:48:47.455Z,25.71
2023-03-03T21:51:15.585Z,25.71
2023-03-03T21:53:44.233Z,25.65
2023-03-03T21:56:13.868Z,25.72
2023-03-03T21:58:42.288Z,25.73
2023-03-03T22:01:11.674Z,25.73
2023-03-03T22:03:40.624Z,25.72
2023-03-03T22:06:08.814Z,25.74
2023-03-03T22:08:36.787Z,25.73
2023-03-03T22:11:05.662Z,25.74
2023-03-03T22:13:33.674Z,25.73
2023-03-03T22:16:01.643Z,25.75
2023-03-03T22:18:30.956Z,25.75
2023-03-03T22:20:58.906Z,25.73
2023-03-03T22:23:26.932Z,25.73
2023-03-03T22:25:54.859Z,25.71
2023-03-03T22:28:23.266Z,25.70
2023-03-03T22:30:51.383Z,25.69
2023-03-03T22:33:19.359Z,25.68
2023-03-03T22:35:49.074Z,25.68
2023-03-03T22:38:17.835Z,25.67
2023-03-03T22:40:45.825Z,25.66
2023-03-03T22:43:14.598Z,25.68
2023-03-03T22:45:44.637Z,25.70
2023-03-03T22:48:13.276Z,25.69
2023-03-03T22:50:42.853Z,25.68
2023-03-03T22:53:12.562Z,25.59
2023-03-03T22:55:40.491Z,25.65
2023-03-03T22:58:09.610Z,25.65
2023-03-03T23:00:39.175Z,25.64
2023-03-03T23:03:07.475Z,25.66
2023-03-03T23:05:35.950Z,25.67
2023-03-03T23:08:05.419Z,25.68
2023-03-03T23:10:34.980Z,25.68
2023-03-03T23:13:03.210Z,25.54
2023-03-03T23:15:31.453Z,25.69
2023-03-03T23:17:59.350Z,25.69
2023-03-03T23:20:30.431Z,25.69
2023-03-03T23:22:58.718Z,25.68
2023-03-03T23:25:26.992Z,25.15
2023-03-03T23:27:57.226Z,25.71
2023-03-03T23:30:25.891Z,25.70
2023-03-03T23:32:54.760Z,25.68
2023-03-03T23:35:23.088Z,25.69
2023-03-03T23:37:51.116Z,25.69
2023-03-03T23:40:19.724Z,25.71
2023-03-03T23:42:47.680Z,25.68
2023-03-03T23:45:17.272Z,25.68
2023-03-03T23:47:45.298Z,25.67
2023-03-03T23:50:13.666Z,25.68
2023-03-03T23:52:42.018Z,25.68
2023-03-03T23:55:10.801Z,25.67
2023-03-03T23:57:38.824Z,25.68
